Tiempo atmosférico en la estación meteorológica de Somosierra, Madrid (1450 m.)



Fecha
DESCASC
Temp. máxima en grados centígrados (hora)
DESCASC
Temp. mínima en grados centígrados (hora)
DESCASC
Temp. media en grados centígrados
DESCASC
Racha de viento máxima en m/sg (hora)
DESCASC
Velocidad máxima media en intervalos de 10 minutos(hora)
DESCASC
Precipitaciones diarias en mm
DESCASC
Precipitaciones de 00:00 a 06:00 en mm
DESCASC
Precipitaciones de 06:00 a 12:00 en mm
DESCASC
Precipitaciones de 12:00 a 18:00 en mm
DESCASC
Precipitaciones de 18:00 a 24:00 en mm
DESCASC
13-10-2019 16.9 (16:50) 10.6 (03:10) 13.8 13.33 (06:30) 7.22 (17:50) 0 0 0 0 0
12-10-2019 18.8 (17:30) 11.2 (23:10) 15 13.33 (12:50) 5.56 (22:20) 2 0.2 0 0 1.8
11-10-2019 21.2 (16:30) 10.7 (08:10) 16 7.78 (16:40) 4.72 (16:40) 0 0 0 0 0
10-10-2019 20 (17:00) 8 (00:00) 14 8.06 (12:00) 5 (12:00) 0 0 0 0 0
09-10-2019 19.7 (17:30) 8.4 (00:00) 14.1 6.11 (04:10) 3.06 (04:40) 0 0 0 0 0
08-10-2019 23.3 (17:00) 11.4 (00:00) 17.3 5.83 (11:40) 3.61 (12:00) 0 0 0 0 0
07-10-2019 21.9 (17:20) 8.3 (00:00) 15.1 8.33 (13:40) 3.61 (13:30) 0 0 0 0 0
06-10-2019 20.5 (17:20) 7.2 (00:00) 13.8 6.39 (20:30) 2.22 (14:30) 0 0 0 0 0
05-10-2019 22.5 (16:40) 8.5 (00:00) 15.5 5.56 (15:50) 1.67 (18:00) 0 0 0 0 0
04-10-2019 21.4 (16:00) 8.9 (00:00) 15.1 6.67 (16:50) 3.61 (12:40) 0 0 0 0 0
03-10-2019 19.7 (17:10) 6.1 (00:00) 12.9 7.22 (16:10) 2.5 (15:30) 0 0 0 0 0
02-10-2019 15.6 (17:10) 5.8 (00:00) 10.7 8.89 (09:30) 3.61 (09:40) 0 0 0 0 0
01-10-2019 18.9 (17:20) 10.7 (00:00) 14.8 9.72 (18:50) 3.33 (18:00) 0 0 0 0 0
30-09-2019 23.4 (16:10) 10 (00:00) 16.7 6.11 (17:10) 2.78 (17:10) 0 0 0 0 0
29-09-2019 23.9 (17:00) 10.6 (00:00) 17.3 6.94 (11:40) 2.5 (23:10) 0 0 0 0 0
28-09-2019 23.4 (16:20) 7.9 (00:00) 15.6 5.83 (12:10) 3.33 (12:10) 0 0 0 0 0
27-09-2019 22.4 (16:10) 9.2 (00:00) 15.8 7.78 (18:00) 2.5 (16:50) 0 0 0 0 0
26-09-2019 22.7 (16:50) 8.1 (00:00) 15.4 6.11 (11:20) 3.61 (11:50) 0 0 0 0 0
25-09-2019 16.7 (16:20) 7.2 (00:00) 12 8.61 (02:00) 2.22 (00:10) 0 0 0 0 0
24-09-2019 19.2 (16:20) 8.6 (00:00) 13.9 8.06 (16:10) 3.06 (14:30) 4.2 0 0 1.2 3
23-09-2019 17.2 (18:00) 5.1 (00:00) 11.2 6.67 (11:30) 3.61 (11:30) 0 0 0 0 0
22-09-2019 15.3 (15:50) 8 (00:00) 11.7 10.28 (02:50) 6.11 (02:20) 11.6 10.4 1.2 0 0
21-09-2019 13.2 (16:10) 10.1 (00:00) 11.7 9.44 (22:00) 5.28 (21:40) 21.4 19.2 0.2 0.8 1.2
20-09-2019 18 (16:20) 10.4 (00:00) 14.2 11.67 (17:10) 6.67 (16:40) 56 0 0 0 56
19-09-2019 22 (13:50) 10.5 (00:00) 16.3 6.39 (14:50) 3.61 (14:50) 0 0 0 0 0
18-09-2019 21.8 (17:30) 9.6 (00:00) 15.7 6.11 (17:00) 2.22 (01:10) 1 1 0 0 0
17-09-2019 24.1 (16:30) 10.6 (00:00) 17.4 12.22 (22:10) 6.11 (22:30) 24.6 0 0 0 24.6

Gráficas

Temp. máximas Temp. mínimas Temp. medias Precipitaciones Rachas de viento máximas Velocidades máximas media en intervalos de 10 minutos

Datos horarios

Fecha y hora oficial Temperatura (ºC) Velocidad del viento (km/h) Dirección del viento Racha (km/h) Dirección de racha Precipitación (mm) Presión (hPa) Tendencia (hPa) Humedad (%)
2019-10-16 23:00:00 5.5 7 Sur 11 Sur 0 857.4 0.3 85
2019-10-16 22:00:00 6.6 6 Sur 13 Sur 0 857.4 0.5 80
2019-10-16 21:00:00 7.5 7 Sur 17 Sur 0 857.1 0.7 76
2019-10-16 20:00:00 8.4 8 Sur 19 Sur 0 857.1 0.6 72
2019-10-16 19:00:00 10.2 7 Sur 19 Sur 0 856.9 -0.2 67
2019-10-16 18:00:00 12 10 Sur 22 Sudoeste 0 856.4 -1.1 58
2019-10-16 17:00:00 12.9 12 Sur 23 Sudoeste 0 856.5 -1.5 56
2019-10-16 16:00:00 12.5 8 Sur 16 Sur 0 857.1 -1.1 56
2019-10-16 15:00:00 11.8 8 Sur 22 Sur 0 857.5 -0.9 62
2019-10-16 14:00:00 10.2 12 Sur 22 Sur 0 858 -0.8 67
2019-10-16 13:00:00 9.8 11 Sur 21 Sur 0 858.2 -0.5 68
2019-10-16 12:00:00 9.9 2 Sur 18 Sudoeste 0 858.4 0 66
2019-10-16 11:00:00 7 6 Noroeste 18 Oeste 0 858.8 1 81
2019-10-16 10:00:00 6.3 3 Norte 19 Noroeste 0 858.7 1 90
2019-10-16 09:00:00 3.4 3 Norte 10 Norte 0 858.4 0.6 95
2019-10-16 08:00:00 3.9 0 Calma 19 Noroeste 0 857.8 -0.2 93
2019-10-16 07:00:00 3.3 2 Norte 9 Norte 0 857.7 -0.2 91
2019-10-16 06:00:00 3.7 2 Norte 10 Nordeste 0 857.8 -0.9 86
2019-10-16 05:00:00 3.5 0 Calma 9 Este 0 858 -0.7 82
2019-10-16 04:00:00 3.4 0 Calma 4 Nordeste 0 857.9 -1 81
2019-10-16 03:00:00 4.4 2 Sur 10 Sudeste 0 858.7 -0.2 76
2019-10-16 02:00:00 5.6 3 Sudeste 7 Sudeste 0 858.7 -0.5 74
2019-10-16 01:00:00 5.3 0 Calma 8 Sur 0 858.9 -0.2 76
2019-10-16 00:00:00 5.7 5 Sudeste 15 Este 0 858.9 -0.1 72
2019-10-15 23:00:00 5.4 0 Calma 11 Nordeste 0 859.2 0.4 76
2019-10-15 22:00:00 4.8 4 Este 8 Este 0 859.1 1.1 76
2019-10-15 21:00:00 5.4 0 Calma 9 Noroeste 0 859 0.7 74
2019-10-15 20:00:00 5.3 5 Noroeste 19 Norte 0 858.8 0.6 72
2019-10-15 19:00:00 6.8 3 Norte 19 Oeste 0 858 0 67
2019-10-15 18:00:00 8.9 9 Oeste 22 Noroeste 0 858.3 -0.1 62
2019-10-15 17:00:00 9.8 9 Oeste 26 Oeste 0 858.2 -0.5 61
2019-10-15 16:00:00 9.2 10 Oeste 22 Noroeste 0 858 -0.8 65
2019-10-15 15:00:00 7.8 6 Oeste 16 Oeste 0 858.4 -0.6 74
2019-10-15 14:00:00 6.8 4 Noroeste 22 Oeste 0 858.7 0.5 75
2019-10-15 13:00:00 5.6 2 Norte 22 Norte 0 858.8 0.8 85
2019-10-15 12:00:00 4.5 3 Noroeste 19 Oeste 0 859 1.8 92
2019-10-15 11:00:00 3 2 Noroeste 22 Oeste 0 858.2 1.5 99
2019-10-15 10:00:00 2.4 8 Noroeste 28 Oeste 0 858 1.6 99
2019-10-15 09:00:00 2.1 4 Noroeste 29 Noroeste 0 857.2 1.1 99
2019-10-15 08:00:00 2 5 Noroeste 27 Norte 0 856.7 1 99
2019-10-15 07:00:00 1.8 6 Noroeste 27 Oeste 0 856.4 0.6 99
2019-10-15 06:00:00 1.8 5 Noroeste 28 Noroeste 0 856.1 0.1 99
2019-10-15 05:00:00 2 9 Noroeste 35 Oeste 0 855.7 -0.1 99
2019-10-15 04:00:00 2.2 11 Noroeste 36 Noroeste 0 855.8 0.3 99
2019-10-15 03:00:00 2.3 8 Noroeste 40 Sudoeste 0 856 0.8 99
2019-10-15 02:00:00 2.5 10 Oeste 37 Oeste 0 855.8 1.2 99
2019-10-15 01:00:00 2.6 9 Oeste 33 Oeste 0.2 855.5 1 99
2019-10-15 00:00:00 2.6 7 Oeste 34 Noroeste 0 855.2 1.4 99
2019-10-14 23:00:00 3.3 7 Oeste 36 Noroeste 0.8 854.6 1.3 99
2019-10-14 22:00:00 3.9 9 Oeste 31 Noroeste 0 854.5 1.1 99
2019-10-14 21:00:00 4.3 6 Sudoeste 31 Sudoeste 1.4 853.8 0.9 99
2019-10-14 20:00:00 4.4 10 Sudoeste 42 Oeste 5.8 853.3 2 96
2019-10-14 19:00:00 3.4 5 Noroeste 50 Noroeste 7 853.4 2.7 99
2019-10-14 18:00:00 4.8 9 Noroeste 40 Noroeste 2.6 852.9 1.8 97
2019-10-14 17:00:00 10.6 6 Oeste 35 Sur 0 851.3 -0.3 66
2019-10-14 16:00:00 12.3 18 Sur 37 Sur 0 850.7 -1.2 57
2019-10-14 15:00:00 13.4 17 Sur 44 Sur 0 851.1 -0.8 59
2019-10-14 14:00:00 13 21 Sur 50 Sur 0 851.6 0.6 70
2019-10-14 13:00:00 10.3 22 Sur 48 Sur 0 851.9 1.2 93
2019-10-14 12:00:00 10.7 24 Sur 55 Sur 0 851.9 1.8 84
2019-10-14 11:00:00 11.3 27 Sur 66 Sur 0 851 1.1 81
2019-10-14 10:00:00 11.6 33 Sur 59 Sudeste 0 850.7 1.2 80
2019-10-14 09:00:00 11.6 30 Sur 59 Sur 0 850.1 -0.5 81
2019-10-14 08:00:00 11.8 30 Sur 56 Sur 0 849.9 -0.3 76
2019-10-14 07:00:00 13 26 Sur 54 Sur 0 849.5 -1.6 68
2019-10-14 06:00:00 14 30 Sur 63 Sudeste 0 850.6 -1.6 63
2019-10-14 05:00:00 14.1 30 Sur 61 Sur 0 850.2 -3 57
2019-10-14 04:00:00 14.2 24 Sur 50 Sur 0 851.1 -2.8 60
2019-10-14 03:00:00 14.8 25 Sur 47 Sur 0 852.2 -3.2 59
2019-10-14 02:00:00 14.6 21 Sur 48 Sudeste 0 853.2 -2.6 62
2019-10-14 01:00:00 13.1 11 Sur 27 Sur 0 853.9 -1.8 69
2019-10-14 00:00:00 12.1 10 Sur 26 Sur 0 855.4 -0.4 70
2019-10-13 23:00:00 13.1 6 Sudeste 24 Sudeste 0 855.8 0 68
2019-10-13 22:00:00 12.5 11 Sur 30 Sudeste 0 855.7 0 69
2019-10-13 21:00:00 13.1 15 Sur 28 Sudeste 0 855.8 0.1 69
2019-10-13 20:00:00 13.6 12 Sudeste 28 Sur 0 855.8 0.2 67
2019-10-13 19:00:00 14.9 17 Sur 35 Sudeste 0 855.7 -0.1 62
2019-10-13 18:00:00 15.1 21 Sur 42 Sur 0 855.7 -0.3 61
2019-10-13 17:00:00 16.6 21 Sur 37 Sur 0 855.6 -0.4 57
2019-10-13 16:00:00 16.5 21 Sur 37 Sur 0 855.8 -0.7 65
2019-10-13 15:00:00 16 20 Sur 36 Sur 0 856 -0.9 68
2019-10-13 14:00:00 15.5 20 Sur 39 Sur 0 856 -0.8 72
2019-10-13 13:00:00 14.3 20 Sur 36 Sur 0 856.5 0.2 76
2019-10-13 12:00:00 13.1 19 Sur 33 Sur 0 856.9 1.2 83
2019-10-13 11:00:00 12.8 15 Sur 27 Sudeste 0 856.8 1.8 89
2019-10-13 10:00:00 11.7 15 Sur 33 Sur 0 856.3 1.4 93
2019-10-13 09:00:00 11.4 21 Sur 39 Sur 0 855.7 1 99
2019-10-13 08:00:00 11.8 21 Sur 42 Sur 0 855 -0.1 98
2019-10-13 07:00:00 12.2 21 Sur 48 Sudeste 0 854.9 -0.6 95
2019-10-13 06:00:00 12.1 23 Sur 44 Sur 0 854.7 -1.5 91
2019-10-13 05:00:00 11.8 23 Sur 43 Sur 0 855.1 -1.6 82
2019-10-13 04:00:00 11.9 21 Sur 39 Sur 0 855.5 -1.8 74
2019-10-13 03:00:00 10.8 12 Sur 26 Sur 0 856.2 -1.7 76
2019-10-13 02:00:00 11.9 12 Sur 30 Sur 0 856.7 -1.2 76
2019-10-13 01:00:00 12.1 12 Sudeste 33 Sur 0 857.3 -0.7 76
2019-10-13 00:00:00 11.6 13 Sur 34 Sur 0.2 857.9 0.1 82
2019-10-12 23:00:00 11.4 17 Sudeste 38 Sudeste 0.8 857.9 1 87
2019-10-12 22:00:00 12.5 12 Sur 24 Sur 0.4 858 1.1 89
2019-10-12 21:00:00 13.6 6 Sudeste 39 Oeste 0.4 857.8 0.8 76
2019-10-12 20:00:00 15.3 7 Sur 23 Sur 0 856.9 -0.3 69
2019-10-12 19:00:00 16.2 13 Sur 28 Sudeste 0 856.9 -0.5 64
2019-10-12 18:00:00 16.4 13 Sur 28 Sur 0 857 -0.6 66
2019-10-12 17:00:00 17.7 17 Sur 30 Sur 0 857.2 -1.1 63
2019-10-12 16:00:00 17 13 Sur 31 Sur 0 857.4 -1 65
2019-10-12 15:00:00 17.2 13 Sur 27 Sur 0 857.6 -1.4 67
2019-10-12 14:00:00 17.6 15 Sur 26 Sudoeste 0 858.3 -0.7 73
2019-10-12 13:00:00 16.1 15 Sur 48 Sur 0 858.4 -0.4 76
2019-10-12 12:00:00 14.3 17 Sur 28 Sur 0 859 0.9 85
2019-10-12 11:00:00 14.2 10 Sur 25 Sudoeste 0 859 1 90
2019-10-12 10:00:00 12.7 8 Sur 22 Sur 0 858.8 0.9 90
2019-10-12 09:00:00 12.3 9 Sur 14 Sur 0 858.1 0.1 89
2019-10-12 08:00:00 12.4 11 Sur 18 Sur 0 858 -0.2 89
2019-10-12 07:00:00 12.3 10 Sur 18 Sur 0 857.9 -0.6 89
2019-10-12 06:00:00 12.8 9 Sur 16 Sudeste 0 858 -0.6 88
2019-10-12 05:00:00 12.9 8 Sur 17 Sur 0 858.2 -0.7 92
2019-10-12 04:00:00 13.9 9 Sur 19 Sur 0 858.5 -1 92
2019-10-12 03:00:00 14.2 10 Sur 19 Sudoeste 0 858.6 -0.9 93
2019-10-12 02:00:00 14.7 5 Sudeste 13 Sudeste 0.2 858.9 -0.6 89
2019-10-12 01:00:00 15.4 6 Sudeste 18 Sur 0 859.5 0.4 84
2019-10-12 00:00:00 15.8 7 Sudeste 19 Sudeste 0 859.5 0.6 81
2019-10-11 23:00:00 15.7 12 Sur 22 Sur 0 859.5 0.6 81
2019-10-11 22:00:00 15.2 13 Sur 23 Sur 0 859.1 0.4 83
2019-10-11 21:00:00 15.5 10 Sur 23 Sur 0 858.9 -0.2 81
2019-10-11 20:00:00 16.3 16 Sur 27 Sur 0 858.9 -0.5 76
2019-10-11 19:00:00 16.9 12 Sur 22 Sudeste 0 858.7 -0.9 73
2019-10-11 18:00:00 19.3 10 Sur 20 Sur 0 859.1 -1.1 64
2019-10-11 17:00:00 20.3 11 Sur 28 Sur 0 859.4 -1.6 62
2019-10-11 16:00:00 20.8 13 Sur 26 Sur 0 859.6 -1.9 64
2019-10-11 15:00:00 20.6 14 Sur 25 Sur 0 860.2 -1.4 65
2019-10-11 14:00:00 19.5 15 Sur 26 Sur 0 861 -0.7 70
2019-10-11 13:00:00 18.7 13 Sur 21 Sur 0 861.5 0.1 73
2019-10-11 12:00:00 17.3 9 Sur 18 Sur 0 861.6 0.8 76
2019-10-11 11:00:00 15.9 8 Sur 15 Sur 0 861.7 1.1 81
2019-10-11 10:00:00 14.1 6 Sur 12 Sur 0 861.4 0.9 88
2019-10-11 09:00:00 11.4 6 Sur 12 Sur 0 860.8 0.4 93
2019-10-11 08:00:00 10.9 5 Sur 10 Sudeste 0 860.6 0 92
2019-10-11 07:00:00 11.8 6 Sur 11 Sur 0 860.5 -0.3 91
2019-10-11 06:00:00 11.6 5 Sur 10 Sudeste 0 860.4 -0.6 90
2019-10-11 05:00:00 11.4 4 Sur 10 Sur 0 860.6 -0.5 89
2019-10-11 04:00:00 11.5 5 Sur 12 Sur 0 860.8 -0.6 88
2019-10-11 03:00:00 11.8 5 Sur 15 Sur 0 861 -0.2 88
2019-10-11 02:00:00 12.9 10 Sur 18 Sur 0 861.1 0 85
2019-10-11 01:00:00 12.4 4 Sur 10 Sudeste 0 861.4 0.5 87
2019-10-11 00:00:00 12.4 6 Sur 11 Sudeste 0 861.2 0.5 86
2019-10-10 23:00:00 13.8 6 Sudeste 15 Sur 0 861.1 0.7 84
2019-10-10 22:00:00 13.7 5 Sudeste 15 Sudeste 0 860.9 0.6 84
2019-10-10 21:00:00 14.2 6 Sudeste 14 Sudeste 0 860.7 0.7 82
2019-10-10 20:00:00 14.6 4 Sudeste 17 Sur 0 860.4 0.4 76
2019-10-10 19:00:00 17.4 8 Sur 16 Sur 0 860.3 0 68
2019-10-10 18:00:00 18.8 8 Sur 18 Sudoeste 0 860 -0.5 63
2019-10-10 17:00:00 20 8 Sur 20 Sur 0 860 -1.3 63
2019-10-10 16:00:00 18.7 10 Sur 22 Sudoeste 0 860.3 -0.8 67
2019-10-10 15:00:00 17.7 13 Sur 25 Sur 0 860.5 -0.7 71
2019-10-10 14:00:00 16.6 12 Sur 24 Sudoeste 0 861.3 -0.1 74
2019-10-10 13:00:00 15.7 15 Sur 28 Sur 0 861.1 0.5 76
2019-10-10 12:00:00 15.1 18 Sur 29 Sudoeste 0 861.2 0.8 72
2019-10-10 11:00:00 14.6 13 Sur 19 Sur 0 861.4 1.8 64
2019-10-10 10:00:00 13.5 5 Sur 13 Sur 0 860.6 0.9 72
2019-10-10 09:00:00 10.1 6 Sur 14 Sur 0 860.4 0.7 76
2019-10-10 08:00:00 8.5 8 Sur 11 Sur 0 859.6 0.3 80
2019-10-10 07:00:00 8.9 5 Sur 8 Sudeste 0 859.7 0.2 75
2019-10-10 06:00:00 8.6 0 Calma 5 Norte 0 859.7 -0.1 75
2019-10-10 05:00:00 9.2 0 Calma 6 Norte 0 859.3 -0.6 75
2019-10-10 04:00:00 9.1 2 Norte 5 Nordeste 0 859.5 -0.6 76
2019-10-10 03:00:00 9 0 Calma 6 Norte 0 859.8 -0.1 76
2019-10-10 02:00:00 9.1 3 Norte 15 Norte 0 859.9 0.1 76
2019-10-10 01:00:00 9 4 Norte 13 Norte 0 860.1 0.4 76
2019-10-10 00:00:00 9 2 Nordeste 12 Norte 0 859.9 0.4 76
2019-10-09 23:00:00 8.4 5 Norte 11 Norte 0 859.8 0.6 76
2019-10-09 22:00:00 9.3 5 Norte 16 Nordeste 0 859.7 0.8 74
2019-10-09 21:00:00 10.5 5 Norte 15 Norte 0 859.5 1 70
2019-10-09 20:00:00 12.4 3 Norte 12 Norte 0 859.2 0.3 62
2019-10-09 19:00:00 16.1 4 Norte 12 Noroeste 0 858.9 -0.2 53
2019-10-09 18:00:00 18.8 4 Norte 14 Norte 0 858.5 -0.7 49
2019-10-09 17:00:00 19.5 4 Norte 21 Noroeste 0 858.9 -0.5 49
2019-10-09 16:00:00 18.9 5 Norte 22 Noroeste 0 859.1 -0.7 53
2019-10-09 15:00:00 18.2 6 Norte 21 Norte 0 859.2 -0.7 56
2019-10-09 14:00:00 17 6 Norte 19 Norte 0 859.4 -0.4 62
2019-10-09 13:00:00 15.5 5 Norte 17 Norte 0 859.8 0.3 74
2019-10-09 12:00:00 15.3 2 Nordeste 14 Nordeste 0 859.9 1.1 80
2019-10-09 11:00:00 12.1 6 Norte 17 Norte 0 859.8 0.7 95
2019-10-09 10:00:00 11.9 5 Norte 19 Nordeste 0 859.5 0.3 95
2019-10-09 09:00:00 12.1 0 Calma 14 Norte 0 858.8 0.8 94
2019-10-09 08:00:00 11.9 6 Norte 20 Noroeste 0 859.1 1 97
2019-10-09 07:00:00 12.4 5 Nordeste 22 Este 0 859.2 0.3 93
2019-10-09 06:00:00 13.7 2 Este 15 Sudeste 0 858 -1.3 85
2019-10-09 05:00:00 14.2 3 Nordeste 22 Este 0 858.1 -1 83
2019-10-09 04:00:00 14.2 3 Nordeste 21 Este 0 858.9 -1 83
2019-10-09 03:00:00 13.4 4 Nordeste 14 Este 0 859.3 -0.6 81
2019-10-09 02:00:00 14.6 3 Nordeste 14 Este 0 859.1 -0.7 75
2019-10-09 01:00:00 14.3 0 Calma 6 Nordeste 0 859.9 0.3 71
2019-10-09 00:00:00 14.8 0 Calma 5 Sudoeste 0 859.9 0.2 64
2019-10-08 23:00:00 14.4 0 Calma 4 Este 0 859.8 0.6 61
2019-10-08 22:00:00 15.2 0 Calma 4 Sudoeste 0 859.6 0.7 60
2019-10-08 21:00:00 15.5 0 Calma 9 Sudeste 0 859.7 0.4 60
2019-10-08 20:00:00 16.8 0 Calma 10 Sur 0 859.2 -0.3 58
2019-10-08 19:00:00 21.4 6 Sur 17 Sur 0 858.9 -0.8 48
2019-10-08 18:00:00 22.4 8 Sur 19 Sur 0 859.3 -0.6 46
2019-10-08 17:00:00 22.8 7 Sur 18 Sudoeste 0 859.5 -0.9 45
2019-10-08 16:00:00 22.2 9 Sur 17 Sur 0 859.7 -0.9 46
2019-10-08 15:00:00 22.2 9 Sur 20 Sudoeste 0 859.9 -1.2 48
2019-10-08 14:00:00 21.1 12 Sur 20 Sur 0 860.4 -0.4 51
2019-10-08 13:00:00 20.1 10 Sur 21 Sur 0 860.6 -0.3 53
2019-10-08 12:00:00 18.6 13 Sur 21 Sur 0 861.1 0.5 51
2019-10-08 11:00:00 19.2 9 Sur 14 Sur 0 860.8 0.2 55
2019-10-08 10:00:00 16.7 5 Sur 9 Sur 0 860.9 0.7 63
2019-10-08 09:00:00 11.9 3 Sudeste 6 Sudeste 0 860.6 0.2 69
2019-10-08 08:00:00 11.8 0 Calma 5 Norte 0 860.6 0.1 68
2019-10-08 07:00:00 11.8 2 Norte 5 Norte 0 860.2 -0.4 68
2019-10-08 06:00:00 12 3 Norte 6 Norte 0 860.4 -0.7 69
2019-10-08 05:00:00 12 0 Calma 8 Norte 0 860.5 -0.5 68
2019-10-08 04:00:00 12 2 Norte 6 Norte 0 860.6 -0.9 71
2019-10-08 03:00:00 11.9 2 Norte 8 Norte 0 861.1 -0.7 71
2019-10-08 02:00:00 11.9 0 Calma 6 Norte 0 861 -0.8 69
2019-10-08 01:00:00 11.6 2 Norte 10 Norte 0 861.5 -0.1 70
2019-10-08 00:00:00 12 3 Norte 15 Norte 0 861.8 0.5 68
2019-10-07 23:00:00 11.9 5 Norte 9 Norte 0 861.8 0.8 66
2019-10-07 22:00:00 14 0 Calma 13 Nordeste 0 861.6 1 63
2019-10-07 21:00:00 14 3 Norte 10 Norte 0 861.3 0.6 63
2019-10-07 20:00:00 15.3 3 Norte 14 Noroeste 0 861 0.3 56
2019-10-07 19:00:00 18.9 2 Noroeste 19 Norte 0 860.6 -0.5 49
2019-10-07 18:00:00 20.9 5 Norte 22 Norte 0 860.7 -0.4 46
2019-10-07 17:00:00 21.2 7 Norte 22 Noroeste 0 860.7 -0.4 41
2019-10-07 16:00:00 21.4 4 Norte 21 Norte 0 861.1 -0.1 42
2019-10-07 15:00:00 20 5 Norte 30 Noroeste 0 861.1 0.3 41
2019-10-07 14:00:00 18.5 10 Norte 30 Noroeste 0 861.1 -0.1 41
2019-10-07 13:00:00 17.3 12 Norte 30 Noroeste 0 861.2 0.3 42
2019-10-07 12:00:00 16.1 12 Norte 28 Norte 0 860.8 0.2 46
2019-10-07 11:00:00 14.6 9 Norte 22 Nordeste 0 861.2 0.6 59
2019-10-07 10:00:00 12 6 Norte 17 Norte 0 860.9 0.7 63
2019-10-07 09:00:00 9.8 5 Norte 20 Norte 0 860.6 0.9 64
2019-10-07 08:00:00 9.2 4 Norte 14 Norte 0 860.6 0.4 71
2019-10-07 07:00:00 9.2 6 Norte 13 Norte 0 860.2 0.1 76
2019-10-07 06:00:00 8.5 5 Norte 12 Noroeste 0 859.7 -1.3 76
2019-10-07 05:00:00 9.2 5 Norte 11 Norte 0 860.2 -0.4 73
2019-10-07 04:00:00 10.3 3 Norte 15 Nordeste 0 860.1 -0.5 70
2019-10-07 03:00:00 10.1 2 Noroeste 15 Norte 0 861 -0.1 70
2019-10-07 02:00:00 10.7 5 Norte 17 Noroeste 0 860.6 -0.4 67
2019-10-07 01:00:00 11 5 Norte 22 Nordeste 0 860.6 -0.5 66
2019-10-07 00:00:00 11 5 Norte 22 Norte 0 861.1 0.6 68
2019-10-06 23:00:00 10.4 6 Norte 22 Noroeste 0 861 0.6 68
2019-10-06 22:00:00 11.2 5 Norte 18 Norte 0 861.1 0.6 62
2019-10-06 21:00:00 12.9 5 Norte 23 Norte 0 860.5 0.2 56
2019-10-06 20:00:00 14.4 4 Norte 17 Nordeste 0 860.4 0 52
2019-10-06 19:00:00 17.6 4 Norte 18 Nordeste 0 860.5 -0.2 45
2019-10-06 18:00:00 19.6 5 Noroeste 23 Oeste 0 860.3 -0.7 41
2019-10-06 17:00:00 19.4 4 Noroeste 18 Norte 0 860.4 -1 42
2019-10-06 16:00:00 19 4 Norte 22 Norte 0 860.7 -0.7 46
2019-10-06 15:00:00 18.5 6 Norte 23 Norte 0 861 -0.4 49
2019-10-06 14:00:00 17.1 5 Norte 14 Nordeste 0 861.4 0.5 58
2019-10-06 13:00:00 16.1 4 Norte 21 Nordeste 0 861.4 0.5 65
2019-10-06 12:00:00 16.4 5 Norte 14 Nordeste 0 861.4 1.3 62
2019-10-06 11:00:00 15.4 3 Norte 10 Noroeste 0 860.9 1 62
2019-10-06 10:00:00 12.3 4 Nordeste 15 Norte 0 860.9 2.1 71
2019-10-06 09:00:00 8.8 0 Calma 14 Este 0 860.1 0.5 85
2019-10-06 08:00:00 8 2 Nordeste 15 Norte 0 859.9 1 88
2019-10-06 07:00:00 8.1 3 Nordeste 13 Norte 0 858.8 -0.8 85
2019-10-06 06:00:00 8.3 3 Norte 9 Nordeste 0 859.6 -0.2 81
2019-10-06 05:00:00 9 0 Calma 10 Este 0 858.9 -1.1 76
2019-10-06 04:00:00 9.5 2 Nordeste 9 Nordeste 0 859.6 0.1 74
2019-10-06 03:00:00 9.9 0 Calma 11 Este 0 859.8 0.4 72
2019-10-06 02:00:00 11.5 4 Noroeste 15 Noroeste 0 860 0.3 70
2019-10-06 01:00:00 10.6 0 Calma 7 Norte 0 859.5 0 73
2019-10-06 00:00:00 11.4 0 Calma 7 Este 0 859.4 0.4 71
2019-10-05 23:00:00 11.9 0 Calma 7 Este 0 859.7 0.9 67
2019-10-05 22:00:00 12.1 3 Norte 8 Norte 0 859.5 1.2 62
2019-10-05 21:00:00 14 0 Calma 6 Nordeste 0 859 1 55
2019-10-05 20:00:00 15.5 0 Calma 12 Noroeste 0 858.8 0.8 49
2019-10-05 19:00:00 19.2 3 Noroeste 16 Noroeste 0 858.3 0.3 41
2019-10-05 18:00:00 21.6 6 Oeste 14 Sudoeste 0 858 -0.3 40
2019-10-05 17:00:00 21.5 3 Noroeste 17 Oeste 0 858 -0.5 46
2019-10-05 16:00:00 21.2 4 Norte 20 Noroeste 0 858 -0.5 51
2019-10-05 15:00:00 20.7 4 Norte 15 Norte 0 858.3 -0.1 55
2019-10-05 14:00:00 19.2 4 Norte 15 Norte 0 858.5 0.4 58
2019-10-05 13:00:00 18.3 5 Norte 18 Norte 0 858.5 0.7 62
2019-10-05 12:00:00 16.5 5 Norte 12 Noroeste 0 858.4 0.7 65
2019-10-05 11:00:00 15.7 4 Norte 10 Norte 0 858.1 1.1 69
2019-10-05 10:00:00 13.9 0 Calma 4 Nordeste 0 857.8 0.8 83
2019-10-05 09:00:00 8.9 0 Calma 3 Norte 0 857.7 0.6 91
2019-10-05 08:00:00 9.2 2 Norte 6 Norte 0 857 -0.3 90
2019-10-05 07:00:00 9.4 2 Norte 13 Norte 0 857 -0.4 90
2019-10-05 06:00:00 9.3 2 Norte 9 Norte 0 857.1 -0.8 90
2019-10-05 05:00:00 9.3 3 Norte 10 Norte 0 857.3 -0.9 86
2019-10-05 04:00:00 9.4 3 Norte 12 Nordeste 0 857.4 -1.1 88
2019-10-05 03:00:00 10.1 3 Norte 14 Norte 0 857.9 -0.4 91
2019-10-05 02:00:00 10.4 0 Calma 7 Norte 0 858.2 -0.4 92
2019-10-05 01:00:00 10.3 2 Norte 8 Norte 0 858.5 0.1 92
2019-10-05 00:00:00 11 3 Norte 9 Norte 0 858.3 0.1 88
2019-10-04 23:00:00 12.2 0 Calma 15 Este 0 858.6 0.4 85
2019-10-04 22:00:00 12.4 0 Calma 10 Norte 0 858.4 0.7 83
2019-10-04 21:00:00 13.9 0 Calma 12 Norte 0 858.2 0.5 75
2019-10-04 20:00:00 14.9 3 Este 12 Norte 0 858.2 0.1 66
2019-10-04 19:00:00 18.6 2 Noroeste 18 Oeste 0 857.7 -0.9 55
2019-10-04 18:00:00 20.5 5 Oeste 19 Noroeste 0 857.7 -1.1 50
2019-10-04 17:00:00 20.5 9 Oeste 24 Noroeste 0 858.1 -1 48
2019-10-04 16:00:00 20.9 5 Oeste 23 Noroeste 0 858.6 -0.4 50
2019-10-04 15:00:00 20.2 5 Norte 21 Norte 0 858.8 -0.6 57
2019-10-04 14:00:00 19.8 4 Norte 19 Sudoeste 0 859.1 0 53
2019-10-04 13:00:00 18.6 12 Sur 23 Sur 0 859 -0.4 45
2019-10-04 12:00:00 17.2 11 Sur 20 Sur 0 859.4 0.6 49
2019-10-04 11:00:00 16.4 7 Sur 14 Sur 0 859.1 0.1 50
2019-10-04 10:00:00 14.9 4 Sur 7 Sur 0 859.4 0.7 57
2019-10-04 09:00:00 10.6 4 Sur 7 Sudeste 0 858.8 -0.2 61
2019-10-04 08:00:00 9 0 Calma 8 Sur 0 859 -0.3 63
2019-10-04 07:00:00 9.5 0 Calma 9 Noroeste 0 858.7 -1 64
2019-10-04 06:00:00 9.8 3 Norte 10 Norte 0 859 -1.2 71
2019-10-04 05:00:00 10.3 4 Norte 10 Nordeste 0 859.3 -0.6 68
2019-10-04 04:00:00 11.9 3 Nordeste 19 Norte 0 859.7 -0.8 59
2019-10-04 03:00:00 11.6 3 Norte 17 Norte 0 860.2 -0.3 56
2019-10-04 02:00:00 11 10 Norte 18 Nordeste 0 859.9 -0.4 57
2019-10-04 01:00:00 10.5 3 Norte 7 Norte 0 860.5 0.3 56
2019-10-04 00:00:00 10.9 0 Calma 6 Noroeste 0 860.5 0.5 57
2019-10-03 23:00:00 10.7 0 Calma 6 Nordeste 0 860.3 0.9 55
2019-10-03 22:00:00 11.5 0 Calma 6 Norte 0 860.2 0.9 53
2019-10-03 21:00:00 11.8 0 Calma 6 Norte 0 860 0.4 50
2019-10-03 20:00:00 14.1 0 Calma 15 Norte 0 859.4 -0.2 46
2019-10-03 19:00:00 17.3 3 Norte 17 Noroeste 0 859.3 -0.3 41
2019-10-03 18:00:00 18.7 5 Noroeste 21 Nordeste 0 859.6 0 39
2019-10-03 17:00:00 19.2 5 Norte 26 Norte 0 859.6 -0.2 40
2019-10-03 16:00:00 18 9 Norte 25 Norte 0 859.6 -0.4 42
2019-10-03 15:00:00 17.5 7 Norte 23 Norte 0 859.6 -0.6 44
2019-10-03 14:00:00 16.5 5 Norte 19 Nordeste 0 859.8 -0.1 48
2019-10-03 13:00:00 15 6 Norte 22 Nordeste 0 860 0 54
2019-10-03 12:00:00 14 8 Norte 22 Norte 0 860.2 0.8 59
2019-10-03 11:00:00 12 6 Norte 19 Norte 0 859.9 0.9 64
2019-10-03 10:00:00 9.7 5 Norte 16 Norte 0 860 1.2 72
2019-10-03 09:00:00 6.6 2 Norte 11 Norte 0 859.4 0.8 82
2019-10-03 08:00:00 6.4 4 Norte 10 Norte 0 859 0.1 81
2019-10-03 07:00:00 6.2 3 Norte 10 Norte 0 858.8 -0.3 82
2019-10-03 06:00:00 6.5 4 Norte 10 Norte 0 858.6 -0.5 82
2019-10-03 05:00:00 6.3 0 Calma 9 Noroeste 0 858.9 -0.6 81
2019-10-03 04:00:00 7.2 0 Calma 12 Norte 0 859.1 -0.6 80
2019-10-03 03:00:00 7.3 3 Norte 9 Norte 0 859.1 -0.9 81
2019-10-03 02:00:00 7.5 2 Norte 17 Norte 0 859.5 -0.3 80
2019-10-03 01:00:00 7 4 Norte 15 Norte 0 859.7 0.1 82
2019-10-03 00:00:00 8.5 3 Norte 14 Nordeste 0 860 0.2 76
2019-10-02 23:00:00 8 3 Norte 14 Norte 0 859.8 0.3 76
2019-10-02 22:00:00 8.3 3 Norte 15 Noroeste 0 859.6 0.4 73
2019-10-02 21:00:00 8.9 0 Calma 15 Noroeste 0 859.8 1.1 69
2019-10-02 20:00:00 10.3 3 Norte 22 Norte 0 859.5 0.6 62
2019-10-02 19:00:00 13.1 6 Norte 27 Noroeste 0 859.2 0.3 53
2019-10-02 18:00:00 14.6 9 Norte 26 Norte 0 858.7 0 50
2019-10-02 17:00:00 15 7 Norte 28 Norte 0 858.9 -0.1 53
2019-10-02 16:00:00 14.3 8 Norte 28 Norte 0 858.9 0.1 55
2019-10-02 15:00:00 14.2 6 Norte 23 Norte 0 858.7 -0.1 58
2019-10-02 14:00:00 12.7 6 Norte 21 Norte 0 859 0.6 64
2019-10-02 13:00:00 10.9 5 Norte 21 Norte 0 858.8 1.4 71
2019-10-02 12:00:00 9.3 4 Norte 19 Noroeste 0 858.8 1.6 86
2019-10-02 11:00:00 6.2 9 Norte 28 Norte 0 858.4 1.8 99
2019-10-02 10:00:00 6 6 Norte 32 Norte 0 857.4 1.1 99
2019-10-02 09:00:00 6 8 Noroeste 26 Noroeste 0 857.2 0.8 99
2019-10-02 08:00:00 6.3 8 Norte 32 Norte 0 856.6 -0.1 99
2019-10-02 07:00:00 7 9 Norte 29 Norte 0 856.3 -0.6 99
2019-10-02 06:00:00 7.5 8 Norte 32 Noroeste 0 856.4 -0.7 99
2019-10-02 05:00:00 7.9 8 Noroeste 30 Noroeste 0 856.7 -0.6 97
2019-10-02 04:00:00 8.2 7 Norte 26 Norte 0 856.9 -0.6 95
2019-10-02 03:00:00 9.3 7 Norte 27 Noroeste 0 857.1 -0.3 89
2019-10-02 02:00:00 9.7 6 Norte 27 Norte 0 857.3 -0.3 83
2019-10-02 01:00:00 10.1 8 Norte 27 Norte 0 857.5 0.4 76
2019-10-02 00:00:00 10.8 8 Norte 25 Norte 0 857.4 1 73
2019-10-01 23:00:00 11.8 8 Noroeste 35 Sudoeste 0 857.6 1.4 71
2019-10-01 22:00:00 12.1 5 Noroeste 19 Oeste 0 857.1 0.8 69
2019-10-01 21:00:00 11.4 2 Norte 12 Norte 0 856.4 0.4 72
2019-10-01 20:00:00 13.1 2 Norte 26 Norte 0 856.2 0.2 64
2019-10-01 19:00:00 15.2 8 Noroeste 35 Noroeste 0 856.3 0.2 60
2019-10-01 18:00:00 17.7 12 Oeste 29 Noroeste 0 856 -0.4 57
2019-10-01 17:00:00 18.1 9 Noroeste 33 Oeste 0 856 -1.1 54
2019-10-01 16:00:00 17.8 5 Oeste 21 Norte 0 856.1 -0.9 56
2019-10-01 15:00:00 15.4 2 Norte 19 Sudoeste 0 856.4 -0.9 71
2019-10-01 14:00:00 14.9 4 Noroeste 21 Noroeste 0 857.1 0.2 73
2019-10-01 13:00:00 12.2 3 Norte 17 Oeste 0 857 0.9 98
2019-10-01 12:00:00 12.2 3 Noroeste 17 Norte 0 857.3 1.4 96
2019-10-01 11:00:00 14.3 4 Norte 16 Norte 0 856.9 0.6 84
2019-10-01 10:00:00 14.6 4 Norte 14 Norte 0 856.1 0.6 82
2019-10-01 09:00:00 11.2 2 Nordeste 16 Este 0 855.9 0.6 84
2019-10-01 08:00:00 11.6 0 Calma 12 Noroeste 0 856.3 0.4 67
2019-10-01 07:00:00 12.1 0 Calma 8 Este 0 855.5 -0.9 60
2019-10-01 06:00:00 12.8 0 Calma 12 Sudeste 0 855.3 -2 57
2019-10-01 05:00:00 13.6 0 Calma 10 Este 0 855.9 -1.7 53
2019-10-01 04:00:00 13.9 0 Calma 16 Sudeste 0 856.4 -1.4 47
2019-10-01 03:00:00 14 2 Este 11 Nordeste 0 857.3 -0.7 46
2019-10-01 02:00:00 14 0 Calma 10 Sudoeste 0 857.6 -0.7 46
2019-10-01 01:00:00 14.4 0 Calma 12 Norte 0 857.8 -0.5 47
2019-10-01 00:00:00 13.5 0 Calma 4 Este 0 858 -0.1 51
2019-09-30 23:00:00 13.7 0 Calma 6 Sudeste 0 858.3 0.5 45
2019-09-30 22:00:00 14.8 0 Calma 10 Sudeste 0 858.3 0.4 42
2019-09-30 21:00:00 15.8 3 Sur 14 Sudeste 0 858.1 0.1 40
2019-09-30 20:00:00 17.2 4 Sudeste 14 Sur 0 857.8 -0.8 40
2019-09-30 19:00:00 21.1 6 Sur 17 Sur 0 857.9 -0.9 37
2019-09-30 18:00:00 22.4 9 Sur 22 Sur 0 858 -1.2 37
2019-09-30 17:00:00 22.7 6 Sur 19 Sur 0 858.6 -1.1 38
2019-09-30 16:00:00 22.6 9 Sur 18 Sur 0 858.8 -1.3 40
2019-09-30 15:00:00 22.3 5 Sur 20 Sudoeste 0 859.2 -1 40
2019-09-30 14:00:00 21.7 8 Sur 16 Sur 0 859.7 -0.4 38
2019-09-30 13:00:00 20.8 9 Sur 19 Sur 0 860.1 0 41
2019-09-30 12:00:00 19.6 9 Sur 16 Sur 0 860.2 0.5 45
2019-09-30 11:00:00 18.3 8 Sur 14 Sur 0 860.1 0.6 47
2019-09-30 10:00:00 16.3 5 Sur 8 Sudeste 0 860.1 1.1 55
2019-09-30 09:00:00 11.1 0 Calma 3 Sur 0 859.7 0.2 64
2019-09-30 08:00:00 10.5 0 Calma 5 Norte 0 859.5 -0.1 66
2019-09-30 07:00:00 11 0 Calma 7 Norte 0 859 -1 72
2019-09-30 06:00:00 11.1 2 Nordeste 5 Norte 0 859.5 -1 74
2019-09-30 05:00:00 11.8 3 Nordeste 8 Este 0 859.6 -1 72
2019-09-30 04:00:00 11.3 0 Calma 6 Norte 0 860 -0.9 70
2019-09-30 03:00:00 12.4 0 Calma 17 Nordeste 0 860.5 -0.4 62
2019-09-30 02:00:00 14 0 Calma 9 Nordeste 0 860.6 -0.3 54
2019-09-30 01:00:00 14.6 0 Calma 19 Norte 0 860.9 0.1 42
2019-09-30 00:00:00 14.9 3 Norte 18 Noroeste 0 860.9 0.6 37
2019-09-29 23:00:00 15.4 8 Noroeste 19 Noroeste 0 860.9 0.9 38
2019-09-29 22:00:00 16.3 4 Noroeste 14 Noroeste 0 860.8 0.9 38
2019-09-29 21:00:00 15.5 0 Calma 10 Este 0 860.3 0.2 38
2019-09-29 20:00:00 17.1 0 Calma 12 Noroeste 0 860 -0.4 36
2019-09-29 19:00:00 21.3 2 Noroeste 17 Oeste 0 859.9 -0.9 31
2019-09-29 18:00:00 23 5 Oeste 21 Oeste 0 860.1 -0.9 31
2019-09-29 17:00:00 23.5 6 Sudoeste 18 Sur 0 860.4 -1.2 30
2019-09-29 16:00:00 23.1 5 Oeste 22 Sudoeste 0 860.8 -0.5 32
2019-09-29 15:00:00 22.7 7 Noroeste 23 Sur 0 861 -0.2 35
2019-09-29 14:00:00 22.4 9 Sudoeste 23 Sudoeste 0 861.6 0.9 35
2019-09-29 13:00:00 21.7 6 Oeste 25 Sudoeste 0 861.3 0.9 36
2019-09-29 12:00:00 20.7 9 Oeste 25 Oeste 0 861.2 1.2 39
2019-09-29 11:00:00 21.1 2 Sudeste 11 Sudeste 0 860.7 0.9 38
2019-09-29 10:00:00 17.5 0 Calma 9 Este 0 860.4 0.5 42
2019-09-29 09:00:00 11.8 0 Calma 5 Este 0 860 0.1 51
2019-09-29 08:00:00 11.4 0 Calma 8 Este 0 859.8 -0.1 51
2019-09-29 07:00:00 11.7 0 Calma 4 Nordeste 0 859.9 -0.3 50
2019-09-29 06:00:00 10.7 0 Calma 8 Este 0 859.9 -0.7 52
2019-09-29 05:00:00 11.7 0 Calma 8 Sudeste 0 859.9 -0.7 49
2019-09-29 04:00:00 14.4 5 Sudeste 12 Sudeste 0 860.2 -0.7 42
2019-09-29 03:00:00 14.2 6 Sudeste 10 Sudeste 0 860.6 -0.5 46
2019-09-29 02:00:00 12.9 2 Sur 6 Sudoeste 0 860.6 -0.4 47
2019-09-29 01:00:00 12.1 0 Calma 4 Sudeste 0 860.9 0.1 47
2019-09-29 00:00:00 12.9 0 Calma 4 Este 0 861.1 0.1 48
2019-09-28 23:00:00 13.2 0 Calma 10 Sudeste 0 861 0.6 49
2019-09-28 22:00:00 14.6 5 Sur 17 Sudeste 0 860.8 0.1 46
2019-09-28 21:00:00 15.2 5 Sudeste 12 Sudeste 0 861 0.3 49
2019-09-28 20:00:00 16.4 4 Sur 12 Sur 0 860.4 -0.4 51
2019-09-28 19:00:00 21.1 5 Sur 14 Sur 0 860.7 -0.5 39
2019-09-28 18:00:00 22.1 5 Sur 15 Sudoeste 0 860.7 -0.7 38
2019-09-28 17:00:00 23 6 Sudoeste 15 Sudoeste 0 860.8 -1 38
2019-09-28 16:00:00 22.5 3 Sur 16 Sur 0 861.2 -0.7 37
2019-09-28 15:00:00 22.2 7 Sur 16 Sudoeste 0 861.4 -0.7 37
2019-09-28 14:00:00 21 6 Sur 14 Sur 0 861.8 -0.2 38
2019-09-28 13:00:00 19.4 7 Sur 21 Sur 0 861.9 0.4 41
2019-09-28 12:00:00 18.2 11 Sur 19 Sur 0 862.1 1.2 42
2019-09-28 11:00:00 16.7 10 Sur 16 Sur 0 862 1.8 45
2019-09-28 10:00:00 15.4 6 Sur 10 Sur 0 861.5 0.9 52
2019-09-28 09:00:00 10.3 4 Sur 8 Sudeste 0 860.9 0.3 60
2019-09-28 08:00:00 8.8 0 Calma 9 Sudeste 0 860.2 -0.4 67
2019-09-28 07:00:00 8.6 0 Calma 5 Este 0 860.6 -0.1 62
2019-09-28 06:00:00 9.2 0 Calma 8 Norte 0 860.6 -0.8 63
2019-09-28 05:00:00 8.6 4 Norte 8 Norte 0 860.6 -1.2 80
2019-09-28 04:00:00 9.4 0 Calma 6 Norte 0 860.7 -1.2 86
2019-09-28 03:00:00 10 0 Calma 11 Nordeste 0 861.4 -0.3 89
2019-09-28 02:00:00 11.3 0 Calma 14 Noroeste 0 861.8 0 84
2019-09-28 01:00:00 12.2 3 Nordeste 17 Este 0 861.9 0.5 74
2019-09-28 00:00:00 12.4 3 Norte 18 Norte 0 861.7 0.6 53
2019-09-27 23:00:00 12 4 Noroeste 14 Noroeste 0 861.8 0.9 49
2019-09-27 22:00:00 13.6 3 Este 9 Este 0 861.4 1.1 42
2019-09-27 21:00:00 12.7 0 Calma 5 Este 0 861.1 0.7 42
2019-09-27 20:00:00 15.4 0 Calma 19 Noroeste 0 860.9 0.4 38
2019-09-27 19:00:00 19 5 Norte 25 Noroeste 0 860.3 -0.2 35
2019-09-27 18:00:00 21 5 Noroeste 28 Oeste 0 860.4 -0.2 35
2019-09-27 17:00:00 21.3 7 Noroeste 27 Oeste 0 860.5 -0.6 33
2019-09-27 16:00:00 22.1 6 Noroeste 22 Noroeste 0 860.5 -0.8 34
2019-09-27 15:00:00 21.2 6 Oeste 23 Oeste 0 860.6 -0.7 34
2019-09-27 14:00:00 20.2 5 Oeste 19 Noroeste 0 861.1 0 37
2019-09-27 13:00:00 19.2 2 Noroeste 14 Noroeste 0 861.3 0.6 41
2019-09-27 12:00:00 17.5 3 Norte 24 Noroeste 0 861.3 0.8 49
2019-09-27 11:00:00 15.6 3 Norte 16 Noroeste 0 861.1 1 51
2019-09-27 10:00:00 14.9 3 Norte 15 Nordeste 0 860.7 0.3 52
2019-09-27 09:00:00 9.9 2 Nordeste 12 Nordeste 0 860.5 0.1 56
2019-09-27 08:00:00 9.5 0 Calma 6 Norte 0 860.1 -0.2 57
2019-09-27 07:00:00 9.9 0 Calma 8 Norte 0 860.4 -0.1 57
2019-09-27 06:00:00 10.3 0 Calma 8 Norte 0 860.4 -0.5 56
2019-09-27 05:00:00 10.3 2 Norte 7 Norte 0 860.3 -0.7 54
2019-09-27 04:00:00 11.4 0 Calma 16 Este 0 860.5 -0.5 51
2019-09-27 03:00:00 14 0 Calma 14 Nordeste 0 860.9 -0.4 46
2019-09-27 02:00:00 14.1 0 Calma 16 Nordeste 0 861 -0.2 47
2019-09-27 01:00:00 13.6 3 Nordeste 13 Nordeste 0 861 -0.2 50
2019-09-27 00:00:00 12 0 Calma 8 Nordeste 0 861.3 0.8 53
2019-09-26 23:00:00 12.3 0 Calma 5 Nordeste 0 861.2 1 55
2019-09-26 22:00:00 13.5 0 Calma 7 Sudeste 0 861.2 1.1 63
2019-09-26 21:00:00 15 0 Calma 10 Sudeste 0 860.5 0.4 60
2019-09-26 20:00:00 17.1 0 Calma 9 Oeste 0 860.2 0 52
2019-09-26 19:00:00 21 6 Oeste 21 Sudoeste 0 860.1 -0.2 42
2019-09-26 18:00:00 22.4 4 Sudoeste 14 Sudoeste 0 860.1 -0.3 42
2019-09-26 17:00:00 22.5 3 Sudoeste 16 Sur 0 860.2 -0.1 42
2019-09-26 16:00:00 21.3 5 Sur 16 Sudoeste 0 860.3 -0.5 45
2019-09-26 15:00:00 20.7 7 Sur 16 Sur 0 860.4 -0.5 47
2019-09-26 14:00:00 19.3 8 Sur 20 Sudoeste 0 860.3 -0.4 50
2019-09-26 13:00:00 17 12 Sur 21 Sur 0 860.8 0.3 53
2019-09-26 12:00:00 16.3 12 Sur 22 Sur 0 860.9 0.9 56
2019-09-26 11:00:00 15.9 11 Sur 18 Sur 0 860.7 1.2 56
2019-09-26 10:00:00 14.1 6 Sur 11 Sur 0 860.5 1.1 62
2019-09-26 09:00:00 9.9 4 Sur 8 Sur 0 860 0.6 73
2019-09-26 08:00:00 8.7 0 Calma 8 Norte 0 859.5 0 81
2019-09-26 07:00:00 8.2 0 Calma 6 Norte 0 859.4 0 85
2019-09-26 06:00:00 8.6 3 Norte 10 Norte 0 859.4 -0.4 83
2019-09-26 05:00:00 8.5 4 Norte 9 Nordeste 0 859.5 0 81
2019-09-26 04:00:00 9.2 0 Calma 6 Norte 0 859.4 -0.4 76
2019-09-26 03:00:00 9.1 0 Calma 9 Este 0 859.8 -0.1 76
2019-09-26 02:00:00 9.1 0 Calma 7 Norte 0 859.5 -0.4 76
2019-09-26 01:00:00 9 0 Calma 5 Nordeste 0 859.8 0.1 82
2019-09-26 00:00:00 9.2 0 Calma 6 Norte 0 859.9 0.8 83
2019-09-25 23:00:00 9.3 0 Calma 6 Norte 0 859.9 0.9 81
2019-09-25 22:00:00 9.6 2 Norte 7 Norte 0 859.7 0.9 76
2019-09-25 21:00:00 10.8 0 Calma 8 Nordeste 0 859.1 0.4 72
2019-09-25 20:00:00 12.2 2 Norte 15 Nordeste 0 859 0.3 67
2019-09-25 19:00:00 14.2 4 Norte 17 Norte 0 858.8 0 57
2019-09-25 18:00:00 15.7 4 Norte 18 Norte 0 858.7 -0.4 55
2019-09-25 17:00:00 16.3 5 Norte 16 Norte 0 858.7 -0.6 53
2019-09-25 16:00:00 16.5 3 Norte 15 Norte 0 858.8 -0.6 55
2019-09-25 15:00:00 15.1 4 Norte 17 Noroeste 0 859.1 -0.5 59
2019-09-25 14:00:00 13.9 3 Norte 15 Norte 0 859.3 0.2 65
2019-09-25 13:00:00 11.9 3 Norte 18 Nordeste 0 859.4 0.9 73
2019-09-25 12:00:00 10.5 3 Norte 18 Sudoeste 0 859.6 1.5 76
2019-09-25 11:00:00 9.2 2 Nordeste 17 Norte 0 859.1 1.2 87
2019-09-25 10:00:00 7.8 3 Norte 15 Norte 0 858.5 0.7 93
2019-09-25 09:00:00 7.5 0 Calma 18 Noroeste 0 858.1 0.5 99
2019-09-25 08:00:00 7.3 3 Norte 23 Norte 0 857.9 0.1 98
2019-09-25 07:00:00 7.9 2 Norte 21 Norte 0 857.8 -0.3 98
2019-09-25 06:00:00 8.4 2 Norte 16 Norte 0 857.6 -1 98
2019-09-25 05:00:00 8.9 0 Calma 12 Norte 0 857.8 -0.8 97
2019-09-25 04:00:00 9.2 0 Calma 20 Norte 0 858.1 -0.9 96
2019-09-25 03:00:00 10 3 Noroeste 21 Norte 0 858.6 -0.8 95
2019-09-25 02:00:00 10.6 5 Noroeste 31 Oeste 0 858.6 -0.5 95
2019-09-25 01:00:00 11.6 5 Noroeste 26 Noroeste 0 859 -0.4 95
2019-09-25 00:00:00 12.3 6 Oeste 25 Oeste 0 859.4 0 96
2019-09-24 23:00:00 12.9 7 Oeste 19 Sudoeste 0 859.1 0 93
2019-09-24 22:00:00 13.3 3 Sur 16 Oeste 0 859.4 0.7 92
2019-09-24 21:00:00 13.4 4 Sudoeste 25 Oeste 0.2 859.4 0.6 92
2019-09-24 20:00:00 14.2 9 Sudoeste 23 Sur 2.2 859.1 0 95
2019-09-24 19:00:00 14.7 2 Oeste 14 Sudoeste 0.6 858.7 -0.5 93
2019-09-24 18:00:00 15.4 0 Calma 12 Sudoeste 1 858.8 -0.4 90
2019-09-24 17:00:00 16.5 6 Oeste 29 Oeste 0.2 859.1 -0.9 83
2019-09-24 16:00:00 18 7 Oeste 22 Noroeste 0 859.2 -1.3 74
2019-09-24 15:00:00 18.4 8 Sudoeste 23 Sudoeste 0 859.2 -1.4 76
2019-09-24 14:00:00 16.4 7 Sudoeste 23 Sudoeste 0 860 -0.2 73
2019-09-24 13:00:00 15.7 5 Oeste 24 Oeste 0 860.5 0.8 55
2019-09-24 12:00:00 15.7 10 Oeste 25 Sudoeste 0 860.6 0.9 48
2019-09-24 11:00:00 16.3 5 Noroeste 22 Noroeste 0 860.2 0.7 42
2019-09-24 10:00:00 14.8 0 Calma 18 Sudoeste 0 859.7 0.6 50
2019-09-24 09:00:00 9.6 2 Nordeste 8 Este 0 859.7 0.3 74
2019-09-24 08:00:00 9.5 2 Norte 8 Nordeste 0 859.5 0.3 73
2019-09-24 07:00:00 8.7 0 Calma 11 Nordeste 0 859.1 -0.6 82
2019-09-24 06:00:00 10.4 6 Nordeste 14 Nordeste 0 859.4 -0.8 76
2019-09-24 05:00:00 10.1 4 Sudeste 7 Sur 0 859.2 -1.3 76
2019-09-24 04:00:00 10.2 4 Sur 7 Sur 0 859.7 -1.1 76
2019-09-24 03:00:00 10.2 2 Nordeste 7 Nordeste 0 860.2 -1 76
2019-09-24 02:00:00 10.6 5 Sur 9 Sudoeste 0 860.5 -0.8 76
2019-09-24 01:00:00 10.9 2 Sudeste 8 Sudeste 0 860.8 -0.6 75
2019-09-24 00:00:00 11.2 5 Este 9 Este 0 861.2 0.2 76
2019-09-23 23:00:00 10.5 4 Sur 6 Sur 0 861.3 0.6 80
2019-09-23 22:00:00 11.1 4 Sur 13 Sur 0 861.4 1.2 76
2019-09-23 21:00:00 11.8 5 Sur 10 Sur 0 861 0.8 76
2019-09-23 20:00:00 14.1 5 Sur 12 Sur 0 860.7 0.4 70
2019-09-23 19:00:00 16.3 5 Sur 10 Sur 0 860.2 -0.1 59
2019-09-23 18:00:00 16.7 0 Calma 9 Sudoeste 0 860.2 0 55
2019-09-23 17:00:00 16.2 4 Sur 12 Sur 0 860.3 -0.2 57
2019-09-23 16:00:00 16.4 5 Sur 16 Sur 0 860.3 0.1 55
2019-09-23 15:00:00 16.3 6 Sur 14 Sur 0 860.2 -0.2 53
2019-09-23 14:00:00 16.2 4 Sur 11 Sur 0 860.5 0.3 53
2019-09-23 13:00:00 14.7 3 Sudoeste 17 Sur 0 860.2 0.1 55
2019-09-23 12:00:00 12.8 10 Sur 24 Sur 0 860.4 0.7 63
2019-09-23 11:00:00 12.7 9 Sur 16 Sur 0 860.2 0.8 63
2019-09-23 10:00:00 11 2 Sur 8 Sur 0 860.1 1.2 76
2019-09-23 09:00:00 5.7 0 Calma 6 Norte 0 859.7 0.8 89
2019-09-23 08:00:00 5.6 0 Calma 9 Este 0 859.4 0.6 89
2019-09-23 07:00:00 6 2 Este 9 Norte 0 858.9 0.6 89
2019-09-23 06:00:00 5.7 3 Norte 10 Noroeste 0 858.9 0.4 84
2019-09-23 05:00:00 7.5 0 Calma 15 Oeste 0 858.8 0.5 76
2019-09-23 04:00:00 6.9 0 Calma 11 Nordeste 0 858.3 -0.3 83
2019-09-23 03:00:00 6.9 0 Calma 12 Este 0 858.5 0.4 85
2019-09-23 02:00:00 7.8 0 Calma 16 Nordeste 0 858.3 0.1 84
2019-09-23 01:00:00 8 0 Calma 16 Este 0 858.6 0.8 83
2019-09-23 00:00:00 8.1 0 Calma 16 Nordeste 0 858.1 0.9 82
2019-09-22 23:00:00 8.4 4 Norte 22 Nordeste 0 858.2 1.4 83
2019-09-22 22:00:00 8.9 4 Norte 14 Norte 0 857.8 1 81
2019-09-22 21:00:00 9.3 4 Noroeste 15 Noroeste 0 857.2 0.9 73
2019-09-22 20:00:00 11 0 Calma 16 Sudoeste 0 856.8 0.8 63
2019-09-22 19:00:00 12.3 7 Noroeste 19 Noroeste 0 856.8 0.9 63
2019-09-22 18:00:00 14.3 8 Oeste 15 Sudoeste 0 856.3 0.9 62
2019-09-22 17:00:00 13.8 0 Calma 25 Oeste 0 856 0.4 64
2019-09-22 16:00:00 14.7 7 Noroeste 26 Oeste 0 855.9 0.3 60
2019-09-22 15:00:00 14 7 Noroeste 26 Oeste 0 855.4 0 68
2019-09-22 14:00:00 12.7 6 Noroeste 22 Noroeste 0 855.6 0.6 76
2019-09-22 13:00:00 10.9 4 Noroeste 19 Noroeste 0 855.6 0.8 92
2019-09-22 12:00:00 10.2 5 Noroeste 21 Noroeste 0 855.4 1.3 96
2019-09-22 11:00:00 9.3 2 Norte 14 Norte 0 855 1.4 99
2019-09-22 10:00:00 8.7 3 Norte 14 Nordeste 0 854.8 1.4 99
2019-09-22 09:00:00 8.5 3 Norte 17 Nordeste 0.4 854.1 1.2 99
2019-09-22 08:00:00 8.4 4 Norte 15 Norte 0.6 853.6 0.6 99
2019-09-22 07:00:00 9.4 3 Norte 13 Norte 0.2 853.4 0.5 99
2019-09-22 06:00:00 10.4 2 Oeste 25 Sur 8.2 852.9 -0.3 99
2019-09-22 05:00:00 11.5 14 Sur 32 Sur 0.2 853 0 99
2019-09-22 04:00:00 11.5 19 Sur 37 Sur 1.8 852.9 -0.3 99
2019-09-22 03:00:00 11.5 21 Sur 37 Sudeste 0 853.2 -0.4 99
2019-09-22 02:00:00 11.7 19 Sur 33 Sur 0.2 853 -0.4 98
2019-09-22 01:00:00 11.5 17 Sur 32 Sur 0 853.2 -0.2 95
2019-09-22 00:00:00 11.6 17 Sur 31 Sur 0 853.6 0.2 95
2019-09-21 23:00:00 11.9 15 Sur 32 Sur 0 853.4 0 95
2019-09-21 22:00:00 11.9 19 Sur 34 Sur 0.2 853.4 0 98
2019-09-21 21:00:00 12 17 Sur 32 Sur 0.2 853.4 -0.1 99
2019-09-21 20:00:00 12.1 18 Sur 33 Sur 0.6 853.4 -0.4 99
2019-09-21 19:00:00 12.1 18 Sur 31 Sudeste 0.2 853.4 -0.7 99
2019-09-21 18:00:00 12 16 Sur 29 Sur 0.2 853.5 -0.7 96
2019-09-21 17:00:00 12.2 13 Sur 29 Sur 0.2 853.8 -0.8 93
2019-09-21 16:00:00 13.1 15 Sur 29 Sudeste 0.4 854.1 -0.5 95
2019-09-21 15:00:00 12.4 14 Sur 28 Sur 0 854.2 -0.4 92
2019-09-21 14:00:00 12.5 12 Sur 23 Sur 0 854.6 0 91
2019-09-21 13:00:00 12.7 12 Sur 24 Sur 0 854.6 0.1 92
2019-09-21 12:00:00 12.1 15 Sur 30 Sur 0 854.6 0.5 92
2019-09-21 11:00:00 11.5 15 Sur 27 Sur 0 854.6 0.4 92
2019-09-21 10:00:00 11.3 14 Sur 22 Sur 0 854.5 0.4 96
2019-09-21 09:00:00 11.1 8 Sur 24 Sur 0 854.1 0.1 97
2019-09-21 08:00:00 10.5 10 Sur 23 Sur 0 854.2 -0.1 99
2019-09-21 07:00:00 10.2 12 Sur 23 Sur 0.2 854.1 -0.4 99
2019-09-21 06:00:00 10.8 12 Sur 24 Sur 0 854 -0.9 99
2019-09-21 05:00:00 10.9 12 Sur 30 Sur 1 854.3 -0.8 99
2019-09-21 04:00:00 10.3 8 Sur 19 Sur 1 854.5 -0.7 99
2019-09-21 03:00:00 10.3 6 Sur 25 Sur 12 854.9 -1.2 99
2019-09-21 02:00:00 10.7 11 Sur 28 Sur 5 855.1 -1.9 98
2019-09-21 01:00:00 11.6 12 Sur 26 Sur 0.2 855.2 -1.5 93
2019-09-21 00:00:00 10.8 6 Sur 22 Sudeste 7.8 856.1 0.2 97
2019-09-20 23:00:00 10.5 8 Sur 20 Este 28.2 857 2.1 99
2019-09-20 22:00:00 11.4 4 Sudeste 21 Sudeste 19.8 856.7 1.7 95
2019-09-20 21:00:00 14.5 12 Sur 33 Sur 0.2 855.9 0.4 92
2019-09-20 20:00:00 15.7 16 Sur 34 Sur 0 854.9 -0.5 80
2019-09-20 19:00:00 16.8 22 Sur 41 Sur 0 855 -1.1 76
2019-09-20 18:00:00 16.3 21 Sur 42 Sur 0 855.5 -1.3 76
2019-09-20 17:00:00 17 22 Sur 41 Sur 0 855.4 -1.9 74
2019-09-20 16:00:00 17.5 20 Sur 38 Sur 0 856.1 -1.8 72
2019-09-20 15:00:00 17.4 21 Sur 35 Sur 0 856.8 -1.1 75
2019-09-20 14:00:00 16.2 16 Sur 36 Sur 0 857.3 -0.6 76
2019-09-20 13:00:00 14.7 17 Sur 32 Sur 0 857.9 -0.3 84
2019-09-20 12:00:00 14.9 19 Sur 32 Sur 0 857.9 0.3 86
2019-09-20 11:00:00 14.4 15 Sur 26 Sur 0 857.9 0.4 90
2019-09-20 10:00:00 14 17 Sur 28 Sur 0 858.2 0.8 91
2019-09-20 09:00:00 12 10 Sur 18 Sur 0 857.6 0.2 95
2019-09-20 08:00:00 12.1 12 Sur 20 Sudoeste 0 857.5 -0.2 93
2019-09-20 07:00:00 12.8 8 Sur 20 Sudeste 0 857.4 -0.7 91
2019-09-20 06:00:00 13.4 8 Sur 19 Sur 0 857.4 -0.9 89
2019-09-20 05:00:00 14 11 Sur 19 Sur 0 857.7 -0.8 89
2019-09-20 04:00:00 14.1 8 Sur 19 Sur 0 858.1 -0.4 84
2019-09-20 03:00:00 14.5 12 Sur 21 Sudeste 0 858.3 -0.5 76
2019-09-20 02:00:00 14.1 9 Sur 18 Sur 0 858.5 -0.4 76
2019-09-20 01:00:00 14.2 6 Sur 13 Sudeste 0 858.5 -0.1 74
2019-09-20 00:00:00 14 6 Sur 13 Sur 0 858.8 0.6 75
2019-09-19 23:00:00 14.6 7 Sur 14 Sur 0 858.9 1.1 70
2019-09-19 22:00:00 14.4 5 Sur 8 Sudoeste 0 858.6 0.7 72
2019-09-19 21:00:00 14.5 4 Sur 9 Sudeste 0 858.2 0.3 74
2019-09-19 20:00:00 15.6 6 Sur 12 Sudeste 0 857.8 -0.5 76
2019-09-19 19:00:00 16.2 3 Este 14 Sudeste 0 857.9 -0.5 69
2019-09-19 18:00:00 16.7 4 Sur 19 Sur 0 857.9 -1.1 65
2019-09-19 17:00:00 18.7 7 Sudoeste 22 Sur 0 858.3 -0.6 61
2019-09-19 16:00:00 17.9 6 Sur 12 Sur 0 858.4 -0.7 56
2019-09-19 15:00:00 16 10 Sur 23 Sur 0 859 -0.2 65
2019-09-19 14:00:00 19.5 9 Sur 22 Sur 0 858.9 0.5 50
2019-09-19 13:00:00 21 8 Sur 19 Sur 0 859.1 0.1 50
2019-09-19 12:00:00 19.6 9 Sur 15 Sur 0 859.2 0.4 54
2019-09-19 11:00:00 18.1 6 Sur 10 Sur 0 858.4 0 61
2019-09-19 10:00:00 16.2 0 Calma 6 Sudeste 0 859 0.7 70
2019-09-19 09:00:00 12 3 Sudeste 5 Sudeste 0 858.8 0.6 84
2019-09-19 08:00:00 10.9 2 Sur 8 Sudeste 0 858.4 0 84
2019-09-19 07:00:00 11.5 5 Este 7 Este 0 858.3 -0.4 81
2019-09-19 06:00:00 10.9 0 Calma 5 Nordeste 0 858.2 -0.9 84
2019-09-19 05:00:00 10.7 0 Calma -- -- 0 858.4 -0.6 86
2019-09-19 04:00:00 11.5 0 Calma 4 Este 0 858.7 -0.5 84
2019-09-19 03:00:00 11.7 0 Calma 4 Norte 0 859.1 0 83
2019-09-19 02:00:00 11.7 2 Norte 5 Norte 0 859 -0.3 84
2019-09-19 01:00:00 12.1 3 Norte 6 Norte 0 859.2 0 81
2019-09-19 00:00:00 12.1 3 Norte 5 Norte 0 859.1 0.3 81
2019-09-18 23:00:00 12.4 4 Norte 7 Norte 0 859.3 0.9 76
2019-09-18 22:00:00 13.6 0 Calma 11 Norte 0 859.2 0.9 76
2019-09-18 21:00:00 14.6 4 Norte 10 Norte 0 858.8 0.8 71
2019-09-18 20:00:00 16.8 3 Norte 12 Noroeste 0 858.4 0 59
2019-09-18 19:00:00 20 4 Noroeste 18 Oeste 0 858.3 -0.4 49
2019-09-18 18:00:00 21.1 7 Oeste 18 Sur 0 858 -0.7 43
2019-09-18 17:00:00 21.6 6 Noroeste 22 Oeste 0 858.4 -0.5 47
2019-09-18 16:00:00 20.8 4 Noroeste 21 Norte 0 858.7 -0.2 50
2019-09-18 15:00:00 18.3 7 Noroeste 21 Noroeste 0 858.7 -0.1 55
2019-09-18 14:00:00 17.1 2 Noroeste 19 Noroeste 0 858.9 0.3 57
2019-09-18 13:00:00 17.6 3 Noroeste 17 Nordeste 0 858.9 0.7 62
2019-09-18 12:00:00 15.9 2 Sur 7 Sur 0 858.8 1.3 70
2019-09-18 11:00:00 14.1 3 Sur 8 Sur 0 858.6 1.2 85
2019-09-18 10:00:00 13.1 3 Sudoeste 5 Sur 0 858.2 0.9 87
2019-09-18 09:00:00 11.9 3 Norte 6 Este 0 857.5 0.5 85
2019-09-18 08:00:00 11.7 2 Sudeste 10 Sudeste 0 857.4 0.3 84
2019-09-18 07:00:00 11.5 3 Sur 9 Sudeste 0 857.3 0.2 85
2019-09-18 06:00:00 10.7 6 Sur 10 Sur 0 857 -0.5 91
2019-09-18 05:00:00 10.7 7 Sur 12 Sudoeste 0 857.1 -1.3 91
2019-09-18 04:00:00 9.9 7 Sur 10 Sur 0 857.1 -1.6 92
2019-09-18 03:00:00 10.2 2 Sur 12 Norte 0.2 857.5 -1.8 92
2019-09-18 02:00:00 9.9 4 Norte 21 Norte 0 858.4 -1.3 96
2019-09-18 01:00:00 10.6 6 Norte 15 Nordeste 0.8 858.7 -0.1 95
2019-09-18 00:00:00 10.8 3 Nordeste 18 Sur 9 859.3 1.9 93
2019-09-17 23:00:00 11.3 16 Sur 44 Sur 15.6 859.7 2.1 96
2019-09-17 22:00:00 15.1 12 Sudeste 39 Sur 0 858.8 1.5 67
2019-09-17 21:00:00 17.4 7 Sudeste 28 Sur 0 857.4 0 58